createdAt,value
2017-08-01T00:00:37.175Z,70.90
2017-08-01T00:03:04.766Z,71.30
2017-08-01T00:05:31.729Z,71.30
2017-08-01T00:07:58.592Z,71.70
2017-08-01T00:10:25.461Z,71.80
2017-08-01T00:12:52.444Z,72.00
2017-08-01T00:15:19.295Z,72.00
2017-08-01T00:17:46.227Z,71.80
2017-08-01T00:20:13.830Z,71.60
2017-08-01T00:22:40.708Z,71.60
2017-08-01T00:25:07.636Z,71.80
2017-08-01T00:27:34.489Z,72.00
2017-08-01T00:30:01.328Z,72.30
2017-08-01T00:32:28.271Z,72.20
2017-08-01T00:34:55.192Z,72.50
2017-08-01T00:37:22.042Z,72.50
2017-08-01T00:39:48.956Z,72.70
2017-08-01T00:42:15.811Z,72.30
2017-08-01T00:44:42.672Z,72.70
2017-08-01T00:47:09.599Z,73.40
2017-08-01T00:49:36.435Z,73.50
2017-08-01T00:52:03.299Z,73.40
2017-08-01T00:54:30.245Z,73.30
2017-08-01T00:56:57.263Z,73.40
2017-08-01T00:59:25.014Z,72.30
2017-08-01T01:01:52.699Z,72.40
2017-08-01T01:04:19.552Z,72.40
2017-08-01T01:06:46.432Z,71.60
2017-08-01T01:09:13.355Z,71.10
2017-08-01T01:11:40.273Z,71.50
2017-08-01T01:14:07.132Z,71.60
2017-08-01T01:16:34.071Z,72.10
2017-08-01T01:19:00.920Z,71.30
2017-08-01T01:21:27.863Z,71.30
2017-08-01T01:23:54.715Z,71.40
2017-08-01T01:26:21.587Z,71.00
2017-08-01T01:28:48.543Z,70.50
2017-08-01T01:31:15.506Z,70.20
2017-08-01T01:33:42.411Z,69.60
2017-08-01T01:36:09.398Z,69.10
2017-08-01T01:38:36.335Z,69.80
2017-08-01T01:41:03.299Z,71.10
2017-08-01T01:43:30.251Z,72.10
2017-08-01T01:45:57.196Z,73.70
2017-08-01T01:48:24.267Z,74.00
2017-08-01T01:50:51.951Z,75.00
2017-08-01T01:53:18.827Z,75.00
2017-08-01T01:55:45.755Z,74.90
2017-08-01T01:58:12.600Z,76.00
2017-08-01T02:00:39.490Z,75.80
2017-08-01T02:03:06.422Z,76.20
2017-08-01T02:05:33.276Z,77.80
2017-08-01T02:08:00.158Z,78.90
2017-08-01T02:10:27.138Z,79.10
2017-08-01T02:12:54.024Z,79.00
2017-08-01T02:15:21.616Z,79.10
2017-08-01T02:17:48.579Z,79.00
2017-08-01T02:20:15.529Z,78.70
2017-08-01T02:22:42.508Z,78.00
2017-08-01T02:25:09.396Z,78.50
2017-08-01T02:27:36.294Z,79.30
2017-08-01T02:30:03.284Z,80.50
2017-08-01T02:32:30.124Z,81.50
2017-08-01T02:34:56.981Z,82.00
2017-08-01T02:37:23.916Z,81.90
2017-08-01T02:39:50.845Z,82.50
2017-08-01T02:42:18.459Z,84.30
2017-08-01T02:44:45.310Z,84.30
2017-08-01T02:47:12.203Z,84.50
2017-08-01T02:49:39.843Z,84.80
2017-08-01T02:52:06.767Z,84.80
2017-08-01T02:54:33.696Z,85.00
2017-08-01T02:57:00.643Z,84.70
2017-08-01T02:59:27.532Z,84.50
2017-08-01T03:01:55.181Z,83.90
2017-08-01T03:04:22.030Z,83.60
2017-08-01T03:06:48.951Z,83.20
2017-08-01T03:09:15.799Z,82.60
2017-08-01T03:11:42.623Z,82.60
2017-08-01T03:14:09.556Z,81.70
2017-08-01T03:16:36.414Z,81.40
2017-08-01T03:19:03.254Z,80.50
2017-08-01T03:21:30.174Z,80.00
2017-08-01T03:23:57.011Z,79.80
2017-08-01T03:26:24.586Z,80.00
2017-08-01T03:28:51.558Z,80.00
2017-08-01T03:31:18.408Z,80.00
2017-08-01T03:33:45.315Z,79.30
2017-08-01T03:36:12.239Z,78.70
2017-08-01T03:38:39.818Z,78.90
2017-08-01T03:41:06.666Z,78.50
2017-08-01T03:43:33.584Z,78.30
2017-08-01T03:46:00.454Z,79.30
2017-08-01T03:48:27.300Z,79.20
2017-08-01T03:50:54.194Z,78.80
2017-08-01T03:53:21.043Z,78.70
2017-08-01T03:55:48.040Z,78.90
2017-08-01T03:58:14.936Z,79.60
2017-08-01T04:00:41.794Z,79.20
2017-08-01T04:03:08.724Z,78.90
2017-08-01T04:05:35.638Z,78.30
2017-08-01T04:08:02.483Z,78.30
2017-08-01T04:10:29.324Z,77.70
2017-08-01T04:12:56.239Z,78.40
2017-08-01T04:15:23.831Z,77.90
2017-08-01T04:17:50.678Z,77.90
2017-08-01T04:20:17.587Z,78.20
2017-08-01T04:22:45.178Z,78.00
2017-08-01T04:25:12.180Z,78.00
2017-08-01T04:27:39.031Z,77.80
2017-08-01T04:30:05.877Z,78.10
2017-08-01T04:32:33.530Z,79.30
2017-08-01T04:35:00.380Z,79.30
2017-08-01T04:37:27.287Z,79.80
2017-08-01T04:39:54.142Z,79.50
2017-08-01T04:42:21.043Z,79.20
2017-08-01T04:44:59.924Z,79.40
2017-08-01T04:47:26.828Z,79.20
2017-08-01T04:49:53.669Z,80.10
2017-08-01T04:52:20.566Z,78.60
2017-08-01T04:54:47.483Z,78.40
2017-08-01T04:57:14.395Z,78.20
2017-08-01T04:59:41.242Z,78.00
2017-08-01T05:02:08.170Z,77.90
2017-08-01T05:04:35.751Z,77.80
2017-08-01T05:07:02.591Z,77.80
2017-08-01T05:09:29.584Z,78.10
2017-08-01T05:11:56.428Z,77.00
2017-08-01T05:14:23.286Z,76.40
2017-08-01T05:16:50.200Z,75.90
2017-08-01T05:19:17.074Z,74.00
2017-08-01T05:21:43.947Z,71.80
2017-08-01T05:24:11.591Z,72.50
2017-08-01T05:26:38.496Z,72.50
2017-08-01T05:29:05.353Z,73.90
2017-08-01T05:31:32.210Z,74.80
2017-08-01T05:33:59.159Z,75.30
2017-08-01T05:36:26.012Z,77.00
2017-08-01T05:38:52.860Z,76.30
2017-08-01T05:41:19.787Z,75.80
2017-08-01T05:43:46.658Z,76.40
2017-08-01T05:46:14.260Z,77.20
2017-08-01T05:48:41.243Z,77.00
2017-08-01T05:51:08.107Z,77.40
2017-08-01T05:53:35.698Z,75.90
2017-08-01T05:56:02.628Z,75.80
2017-08-01T05:58:30.228Z,75.30
2017-08-01T06:00:57.140Z,75.30
2017-08-01T06:03:24.063Z,74.90
2017-08-01T06:05:50.935Z,75.00
2017-08-01T06:08:17.792Z,75.40
2017-08-01T06:10:44.741Z,75.10
2017-08-01T06:13:11.647Z,74.50
2017-08-01T06:15:39.406Z,74.70
2017-08-01T06:18:06.259Z,74.70
2017-08-01T06:20:33.862Z,74.90
2017-08-01T06:23:00.810Z,74.30
2017-08-01T06:25:27.723Z,73.80
2017-08-01T06:27:55.311Z,73.30
2017-08-01T06:30:22.368Z,73.30
2017-08-01T06:32:49.271Z,70.70
2017-08-01T06:35:16.886Z,69.70
2017-08-01T06:37:43.855Z,69.70
2017-08-01T06:40:10.700Z,69.20
2017-08-01T06:42:37.625Z,68.40
2017-08-01T06:45:04.540Z,68.00
2017-08-01T06:47:31.443Z,68.00
2017-08-01T06:49:58.356Z,68.30
2017-08-01T06:52:25.219Z,68.30
2017-08-01T06:54:52.143Z,67.00
2017-08-01T06:57:18.998Z,66.50
2017-08-01T06:59:45.941Z,66.40
2017-08-01T07:02:12.840Z,67.90
2017-08-01T07:04:40.430Z,67.90
2017-08-01T07:07:07.384Z,67.90
2017-08-01T07:09:34.234Z,68.10
2017-08-01T07:12:01.199Z,68.30
2017-08-01T07:14:28.135Z,67.20
2017-08-01T07:16:55.160Z,67.70
2017-08-01T07:19:22.032Z,66.00
2017-08-01T07:21:55.862Z,65.10
2017-08-01T07:24:22.787Z,63.50
2017-08-01T07:26:49.642Z,62.10
2017-08-01T07:29:16.581Z,62.20
2017-08-01T07:31:43.443Z,63.20
2017-08-01T07:34:10.385Z,63.80
2017-08-01T07:36:37.305Z,63.50
2017-08-01T07:39:04.323Z,63.50
2017-08-01T07:41:31.254Z,63.60
2017-08-01T07:43:58.143Z,63.30
2017-08-01T07:48:58.649Z,63.50
2017-08-01T07:51:25.528Z,63.20
2017-08-01T07:53:52.507Z,63.10
2017-08-01T07:56:19.456Z,62.80
2017-08-01T07:58:46.328Z,63.70
2017-08-01T08:01:13.347Z,62.60
2017-08-01T08:03:40.242Z,61.80
2017-08-01T08:06:07.111Z,62.60
2017-08-01T08:08:34.076Z,61.20
2017-08-01T08:11:01.028Z,60.60
2017-08-01T08:13:28.645Z,59.30
2017-08-01T08:15:55.633Z,59.30
2017-08-01T08:18:22.532Z,60.10
2017-08-01T08:20:49.440Z,59.80
2017-08-01T08:23:17.223Z,60.60
2017-08-01T08:25:44.135Z,60.50
2017-08-01T08:28:11.062Z,59.70
2017-08-01T08:30:38.027Z,59.30
2017-08-01T08:33:04.911Z,59.40
2017-08-01T08:35:31.780Z,59.30
2017-08-01T08:37:58.737Z,59.70
2017-08-01T08:40:25.597Z,59.90
2017-08-01T08:42:52.512Z,59.80
2017-08-01T08:45:19.467Z,59.30
2017-08-01T08:47:46.416Z,59.70
2017-08-01T08:50:13.269Z,58.50
2017-08-01T08:52:40.137Z,58.60
2017-08-01T08:55:07.121Z,56.80
2017-08-01T08:57:33.988Z,56.10
2017-08-01T09:00:00.851Z,55.10
2017-08-01T09:02:27.861Z,53.60
2017-08-01T09:04:54.741Z,50.60
2017-08-01T09:07:21.611Z,50.40
2017-08-01T09:09:48.535Z,47.90
2017-08-01T09:12:15.487Z,45.90
2017-08-01T09:14:42.355Z,43.10
2017-08-01T09:17:09.296Z,41.40
2017-08-01T09:19:36.152Z,39.10
2017-08-01T09:22:03.855Z,39.20
2017-08-01T09:24:30.719Z,39.10
2017-08-01T09:26:57.700Z,38.90
2017-08-01T09:29:24.580Z,39.00
2017-08-01T09:31:51.745Z,38.20
2017-08-01T09:34:18.767Z,39.30
2017-08-01T09:36:45.633Z,40.50
2017-08-01T09:39:12.582Z,40.30
2017-08-01T09:41:39.895Z,40.80
2017-08-01T09:44:06.895Z,40.40
2017-08-01T09:46:33.841Z,42.10
2017-08-01T09:49:00.801Z,42.50
2017-08-01T09:51:27.702Z,40.80
2017-08-01T09:53:54.595Z,39.00
2017-08-01T09:56:21.532Z,40.80
2017-08-01T09:58:48.487Z,41.70
2017-08-01T10:01:15.356Z,42.10
2017-08-01T10:03:42.250Z,41.00
2017-08-01T10:06:09.276Z,41.00
2017-08-01T10:08:36.152Z,43.00
2017-08-01T10:11:03.024Z,43.30
2017-08-01T10:13:29.971Z,43.30
2017-08-01T10:15:56.870Z,44.20
2017-08-01T10:18:23.841Z,43.30
2017-08-01T10:20:50.699Z,43.30
2017-08-01T10:23:17.576Z,43.10
2017-08-01T10:25:44.530Z,41.30
2017-08-01T10:28:11.406Z,38.20
2017-08-01T10:30:38.268Z,38.40
2017-08-01T10:33:05.216Z,37.70
2017-08-01T10:35:32.085Z,34.70
2017-08-01T10:37:58.940Z,36.00
2017-08-01T10:40:25.856Z,37.20
2017-08-01T10:42:52.742Z,39.20
2017-08-01T10:45:19.771Z,39.50
2017-08-01T10:47:46.659Z,40.20
2017-08-01T10:50:13.564Z,39.90
2017-08-01T10:52:40.524Z,39.90
2017-08-01T10:55:08.191Z,42.20
2017-08-01T10:57:35.079Z,41.50
2017-08-01T11:00:02.071Z,38.90
2017-08-01T11:02:29.667Z,39.50
2017-08-01T11:04:56.595Z,38.80
2017-08-01T11:07:23.547Z,40.00
2017-08-01T11:09:50.493Z,40.80
2017-08-01T11:12:17.377Z,41.20
2017-08-01T11:14:44.315Z,43.10
2017-08-01T11:17:11.258Z,42.30
2017-08-01T11:19:38.161Z,44.00
2017-08-01T11:22:05.881Z,44.50
2017-08-01T11:24:32.784Z,45.10
2017-08-01T11:26:59.721Z,44.70
2017-08-01T11:29:27.439Z,45.00
2017-08-01T11:31:54.335Z,44.90
2017-08-01T11:34:21.243Z,45.00
2017-08-01T11:36:48.187Z,45.00
2017-08-01T11:39:15.088Z,44.70
2017-08-01T11:41:41.962Z,41.80
2017-08-01T11:44:08.895Z,40.80
2017-08-01T11:46:35.844Z,40.50
2017-08-01T11:49:02.736Z,40.20
2017-08-01T11:51:29.687Z,40.30
2017-08-01T11:53:57.320Z,39.30
2017-08-01T11:56:24.187Z,39.20
2017-08-01T11:58:51.129Z,40.00
2017-08-01T12:01:18.016Z,40.50
2017-08-01T12:03:44.896Z,42.00
2017-08-01T12:06:11.843Z,42.60
2017-08-01T12:08:38.752Z,41.40
2017-08-01T12:11:05.697Z,40.90
2017-08-01T12:13:32.667Z,41.50
2017-08-01T12:15:59.573Z,42.80
2017-08-01T12:18:26.468Z,43.60
2017-08-01T12:20:53.405Z,43.00
2017-08-01T12:23:20.337Z,42.60
2017-08-01T12:25:47.296Z,42.70
2017-08-01T12:28:14.177Z,42.70
2017-08-01T12:30:41.078Z,41.50
2017-08-01T12:33:08.021Z,40.90
2017-08-01T12:35:34.928Z,38.20
2017-08-01T12:38:02.626Z,38.50
2017-08-01T12:40:29.605Z,38.40
2017-08-01T12:42:56.481Z,38.00
2017-08-01T12:45:24.246Z,39.70
2017-08-01T12:47:51.852Z,37.70
2017-08-01T12:50:18.909Z,37.70
2017-08-01T12:52:45.796Z,38.40
2017-08-01T12:55:12.672Z,38.80
2017-08-01T12:57:39.596Z,39.40
2017-08-01T13:00:07.250Z,39.60
2017-08-01T13:02:34.947Z,39.80
2017-08-01T13:05:01.824Z,39.80
2017-08-01T13:07:28.695Z,41.30
2017-08-01T13:09:55.699Z,42.00
2017-08-01T13:29:43.233Z,47.10
2017-08-01T13:32:10.139Z,47.60
2017-08-01T13:34:37.823Z,50.00
2017-08-01T13:37:05.502Z,50.80
2017-08-01T13:39:32.381Z,50.80
2017-08-01T13:41:59.400Z,51.20
2017-08-01T13:44:26.260Z,52.70
2017-08-01T13:46:53.183Z,53.70
2017-08-01T13:49:20.175Z,55.20
2017-08-01T13:51:47.121Z,56.30
2017-08-01T13:54:13.984Z,56.70
2017-08-01T13:56:40.916Z,58.10
2017-08-01T13:59:07.781Z,58.20
2017-08-01T14:01:34.726Z,60.10
2017-08-01T14:04:02.327Z,60.00
2017-08-01T14:06:29.193Z,59.90
2017-08-01T14:08:56.155Z,60.80
2017-08-01T14:11:23.043Z,60.40
2017-08-01T14:13:50.683Z,61.50
2017-08-01T14:16:17.607Z,61.40
2017-08-01T14:18:44.483Z,61.80
2017-08-01T14:21:11.477Z,63.30
2017-08-01T14:23:38.399Z,63.60
2017-08-01T14:26:05.247Z,64.50
2017-08-01T14:28:32.088Z,64.70
2017-08-01T14:30:59.016Z,66.10
2017-08-01T14:33:26.634Z,64.40
2017-08-01T14:35:53.488Z,64.50
2017-08-01T14:38:20.445Z,64.80
2017-08-01T14:40:47.330Z,65.30
2017-08-01T14:43:14.181Z,67.10
2017-08-01T14:45:41.183Z,68.70
2017-08-01T14:48:08.096Z,68.30
2017-08-01T14:50:34.967Z,66.90
2017-08-01T14:53:01.891Z,67.00
2017-08-01T14:55:28.754Z,66.20
2017-08-01T14:57:55.604Z,66.80
2017-08-01T15:00:22.627Z,66.70
2017-08-01T15:02:49.492Z,67.70
2017-08-01T15:05:16.336Z,66.60
2017-08-01T15:07:43.280Z,66.40
2017-08-01T15:10:10.148Z,67.30
2017-08-01T15:12:37.008Z,67.30
2017-08-01T15:15:04.699Z,66.80
2017-08-01T15:17:31.577Z,66.80
2017-08-01T15:19:58.440Z,68.50
2017-08-01T15:22:25.356Z,68.90
2017-08-01T15:24:52.298Z,69.30
2017-08-01T15:27:19.229Z,70.20
2017-08-01T15:29:46.190Z,71.30
2017-08-01T15:32:13.051Z,72.30
2017-08-01T15:34:39.895Z,71.50
2017-08-01T15:37:06.828Z,72.80
2017-08-01T15:39:33.689Z,72.80
2017-08-01T15:42:00.568Z,73.20
2017-08-01T15:44:28.219Z,72.10
2017-08-01T15:46:55.837Z,71.80
2017-08-01T15:49:22.771Z,71.70
2017-08-01T15:51:49.635Z,71.70
2017-08-01T15:54:16.549Z,71.40
2017-08-01T15:56:43.498Z,70.90
2017-08-01T15:59:10.339Z,70.60
2017-08-01T16:01:37.367Z,71.10
2017-08-01T16:04:05.018Z,70.20
2017-08-01T16:06:32.635Z,70.10
2017-08-01T16:08:59.572Z,70.00
2017-08-01T16:11:26.503Z,70.50
2017-08-01T16:13:53.366Z,70.80
2017-08-01T16:16:20.296Z,69.70
2017-08-01T16:18:47.160Z,68.90
2017-08-01T16:21:14.488Z,68.00
2017-08-01T16:23:41.366Z,68.00
2017-08-01T16:26:08.255Z,68.40
2017-08-01T16:28:35.932Z,70.10
2017-08-01T16:31:02.851Z,70.10
2017-08-01T16:33:29.832Z,70.60
2017-08-01T16:35:56.803Z,71.50
2017-08-01T16:38:23.663Z,72.20
2017-08-01T16:40:50.603Z,73.20
2017-08-01T16:43:17.463Z,72.90
2017-08-01T16:45:44.455Z,72.00
2017-08-01T16:48:11.397Z,71.00
2017-08-01T16:50:38.992Z,70.70
2017-08-01T16:53:05.936Z,70.70
2017-08-01T16:55:32.806Z,71.30
2017-08-01T16:57:59.670Z,71.50
2017-08-01T17:00:27.452Z,71.10
2017-08-01T17:02:55.129Z,69.10
2017-08-01T17:05:22.051Z,69.10
2017-08-01T17:07:49.732Z,68.50
2017-08-01T17:10:16.584Z,68.50
2017-08-01T17:12:47.020Z,68.80
2017-08-01T17:15:14.003Z,69.10
2017-08-01T17:17:41.085Z,69.70
2017-08-01T17:20:08.022Z,70.60
2017-08-01T17:22:34.956Z,70.00
2017-08-01T17:25:01.831Z,70.20
2017-08-01T17:27:29.729Z,70.40
2017-08-01T17:29:56.608Z,70.40
2017-08-01T17:32:23.553Z,69.80
2017-08-01T17:34:50.391Z,70.10
2017-08-01T17:37:17.300Z,70.10
2017-08-01T17:39:44.241Z,71.30
2017-08-01T17:42:11.083Z,70.00
2017-08-01T17:44:37.950Z,70.70
2017-08-01T17:47:04.888Z,70.60
2017-08-01T17:49:31.830Z,71.00
2017-08-01T17:51:58.814Z,71.40
2017-08-01T17:54:25.775Z,70.70
2017-08-01T17:56:52.640Z,70.70
2017-08-01T17:59:20.284Z,69.70
2017-08-01T18:01:47.259Z,69.70
2017-08-01T18:04:14.868Z,70.30
2017-08-01T18:06:41.790Z,70.30
2017-08-01T18:09:08.716Z,70.60
2017-08-01T18:11:35.672Z,71.10
2017-08-01T18:14:02.603Z,71.00
2017-08-01T18:16:30.309Z,71.90
2017-08-01T18:18:57.167Z,71.90
2017-08-01T18:21:24.099Z,72.30
2017-08-01T18:23:50.954Z,72.30
2017-08-01T18:26:17.900Z,72.90
2017-08-01T18:28:44.859Z,72.90
2017-08-01T18:31:11.741Z,72.50
2017-08-01T18:33:38.595Z,72.60
2017-08-01T18:36:05.535Z,72.30
2017-08-01T18:38:32.414Z,72.30
2017-08-01T18:40:59.272Z,72.80
2017-08-01T18:43:26.192Z,72.40
2017-08-01T18:45:53.046Z,72.70
2017-08-01T18:48:19.985Z,72.40
2017-08-01T18:50:46.885Z,72.40
2017-08-01T18:53:14.492Z,73.30
2017-08-01T18:55:41.439Z,73.30
2017-08-01T18:58:08.400Z,73.00
2017-08-01T19:00:35.416Z,73.60
2017-08-01T19:03:02.326Z,74.10
2017-08-01T19:05:29.185Z,74.10
2017-08-01T19:07:56.846Z,74.40
2017-08-01T19:10:24.572Z,74.60
2017-08-01T19:12:51.448Z,74.60
2017-08-01T19:15:19.134Z,75.20
2017-08-01T19:17:46.067Z,75.10
2017-08-01T19:20:13.691Z,76.10
2017-08-01T19:22:40.561Z,76.00
2017-08-01T19:25:07.499Z,76.20
2017-08-01T19:27:34.341Z,76.50
2017-08-01T19:30:01.208Z,76.70
2017-08-01T19:32:28.885Z,76.50
2017-08-01T19:34:55.772Z,76.40
2017-08-01T19:37:22.717Z,76.40
2017-08-01T19:39:49.578Z,76.40
2017-08-01T19:42:16.449Z,76.00
2017-08-01T19:44:44.177Z,75.40
2017-08-01T19:47:11.062Z,75.30
2017-08-01T19:49:38.698Z,76.30
2017-08-01T19:52:05.528Z,76.20
2017-08-01T19:54:32.525Z,76.20
2017-08-01T19:56:59.376Z,77.10
2017-08-01T19:59:26.220Z,77.80
2017-08-01T20:01:53.161Z,77.30
2017-08-01T20:04:20.040Z,77.30
2017-08-01T20:06:46.992Z,77.00
2017-08-01T20:09:13.990Z,77.70
2017-08-01T20:11:41.600Z,76.90
2017-08-01T20:14:08.547Z,76.80
2017-08-01T20:16:35.473Z,76.60
2017-08-01T20:19:02.333Z,76.40
2017-08-01T20:21:29.275Z,77.00
2017-08-01T20:23:56.136Z,77.00
2017-08-01T20:26:22.986Z,76.90
2017-08-01T20:28:49.900Z,76.60
2017-08-01T20:31:16.877Z,76.40
2017-08-01T20:33:43.835Z,76.70
2017-08-01T20:36:10.686Z,77.20
2017-08-01T20:38:38.355Z,77.40
2017-08-01T20:41:05.221Z,77.30
2017-08-01T20:43:32.076Z,77.40
2017-08-01T20:45:59.067Z,77.30
2017-08-01T20:48:25.926Z,77.10
2017-08-01T20:50:52.912Z,76.10
2017-08-01T20:53:19.811Z,76.20
2017-08-01T20:55:46.711Z,76.10
2017-08-01T20:58:13.639Z,76.00
2017-08-01T21:00:40.486Z,76.50
2017-08-01T21:03:07.402Z,76.30
2017-08-01T21:05:34.267Z,76.40
2017-08-01T21:08:04.048Z,76.80
2017-08-01T21:10:30.897Z,76.80
2017-08-01T21:12:57.767Z,76.80
2017-08-01T21:15:24.711Z,77.20
2017-08-01T21:17:51.624Z,77.20
2017-08-01T21:20:18.492Z,76.80
2017-08-01T21:22:45.447Z,77.40
2017-08-01T21:25:13.040Z,77.20
2017-08-01T21:27:39.968Z,77.20
2017-08-01T21:30:07.582Z,76.30
2017-08-01T21:32:34.454Z,76.20
2017-08-01T21:35:01.404Z,75.50
2017-08-01T21:37:28.252Z,75.70
2017-08-01T21:39:55.170Z,75.60
2017-08-01T21:42:22.032Z,74.90
2017-08-01T21:44:48.947Z,74.70
2017-08-01T21:47:15.888Z,74.50
2017-08-01T21:49:42.780Z,74.50
2017-08-01T21:52:09.691Z,74.50
2017-08-01T21:54:36.542Z,75.10
2017-08-01T21:57:03.445Z,74.90
2017-08-01T21:59:30.289Z,74.70
2017-08-01T22:01:57.266Z,74.70
2017-08-01T22:04:24.187Z,74.70
2017-08-01T22:06:51.131Z,74.40
2017-08-01T22:09:18.066Z,74.70
2017-08-01T22:29:06.479Z,75.10
2017-08-01T22:31:33.411Z,75.40
2017-08-01T22:34:00.365Z,75.30
2017-08-01T22:36:27.275Z,75.40
2017-08-01T22:38:54.112Z,75.20
2017-08-01T22:41:21.808Z,75.20
2017-08-01T22:43:48.666Z,75.10
2017-08-01T22:46:15.569Z,75.10
2017-08-01T22:48:42.531Z,75.10
2017-08-01T22:51:09.404Z,75.00
2017-08-01T22:53:36.339Z,74.80
2017-08-01T22:56:03.258Z,74.80
2017-08-01T22:58:30.107Z,74.90
2017-08-01T23:00:57.039Z,74.60
2017-08-01T23:03:24.626Z,75.10
2017-08-01T23:05:51.479Z,75.10
2017-08-01T23:08:18.395Z,75.10
2017-08-01T23:10:45.310Z,74.90
2017-08-01T23:13:12.177Z,74.60
2017-08-01T23:15:39.844Z,74.70
2017-08-01T23:18:07.356Z,74.70
2017-08-01T23:20:34.229Z,74.40
2017-08-01T23:23:01.879Z,74.50
2017-08-01T23:25:28.707Z,74.50
2017-08-01T23:27:55.661Z,74.30
2017-08-01T23:30:22.503Z,74.10
2017-08-01T23:32:49.413Z,74.10
2017-08-01T23:35:16.331Z,74.40
2017-08-01T23:37:43.985Z,74.60
2017-08-01T23:40:11.607Z,75.30
2017-08-01T23:42:38.453Z,74.80
2017-08-01T23:45:05.363Z,74.80
2017-08-01T23:47:32.221Z,74.60
2017-08-01T23:49:59.123Z,74.50
2017-08-01T23:52:26.744Z,74.80
2017-08-01T23:54:53.684Z,74.80
2017-08-01T23:57:20.620Z,74.90
2017-08-01T23:59:47.488Z,74.90
